sensor_id;sensor_type;location;lat;lon;timestamp;pressure;altitude;pressure_sealevel;temperature;humidity
55759;BME280;41678;52.126;20.664;2023-04-03T00:04:45;100875.41;;;1.36;87.85
55759;BME280;41678;52.126;20.664;2023-04-03T00:10:05;100883.91;;;1.32;88.14
55759;BME280;41678;52.126;20.664;2023-04-03T00:15:25;100875.81;;;1.22;88.00
55759;BME280;41678;52.126;20.664;2023-04-03T00:20:44;100887.72;;;1.17;88.10
55759;BME280;41678;52.126;20.664;2023-04-03T00:26:04;100884.09;;;1.12;87.73
55759;BME280;41678;52.126;20.664;2023-04-03T00:31:24;100881.09;;;1.01;88.04
55759;BME280;41678;52.126;20.664;2023-04-03T00:36:44;100888.81;;;0.99;88.16
55759;BME280;41678;52.126;20.664;2023-04-03T00:42:03;100889.34;;;0.91;88.00
55759;BME280;41678;52.126;20.664;2023-04-03T00:47:24;100886.69;;;0.89;87.70
55759;BME280;41678;52.126;20.664;2023-04-03T00:52:44;100906.50;;;0.87;87.47
55759;BME280;41678;52.126;20.664;2023-04-03T00:58:06;100909.00;;;0.84;87.08
55759;BME280;41678;52.126;20.664;2023-04-03T01:03:27;100908.75;;;0.78;86.20
55759;BME280;41678;52.126;20.664;2023-04-03T01:08:49;100913.69;;;0.72;86.70
55759;BME280;41678;52.126;20.664;2023-04-03T01:14:09;100927.38;;;0.67;86.21
55759;BME280;41678;52.126;20.664;2023-04-03T01:19:29;100929.78;;;0.63;86.54
55759;BME280;41678;52.126;20.664;2023-04-03T01:24:50;100930.41;;;0.57;86.01
55759;BME280;41678;52.126;20.664;2023-04-03T01:30:14;100938.13;;;0.55;85.90
55759;BME280;41678;52.126;20.664;2023-04-03T01:35:36;100937.69;;;0.45;86.26
55759;BME280;41678;52.126;20.664;2023-04-03T01:40:57;100942.56;;;0.37;86.19
55759;BME280;41678;52.126;20.664;2023-04-03T01:46:17;100953.19;;;0.43;85.48
55759;BME280;41678;52.126;20.664;2023-04-03T01:51:37;100951.13;;;0.34;85.71
55759;BME280;41678;52.126;20.664;2023-04-03T01:56:57;100951.78;;;0.30;85.31
55759;BME280;41678;52.126;20.664;2023-04-03T02:02:17;100960.22;;;0.24;85.33
55759;BME280;41678;52.126;20.664;2023-04-03T02:07:37;100964.41;;;0.22;84.89
55759;BME280;41678;52.126;20.664;2023-04-03T02:12:57;100965.91;;;0.16;85.04
55759;BME280;41678;52.126;20.664;2023-04-03T02:18:18;100970.81;;;0.09;84.82
55759;BME280;41678;52.126;20.664;2023-04-03T02:23:38;100975.03;;;0.07;85.18
55759;BME280;41678;52.126;20.664;2023-04-03T02:28:57;100975.53;;;-0.02;84.68
55759;BME280;41678;52.126;20.664;2023-04-03T02:34:17;100978.19;;;0.00;84.60
55759;BME280;41678;52.126;20.664;2023-04-03T02:39:38;100982.22;;;-0.07;84.49
55759;BME280;41678;52.126;20.664;2023-04-03T02:44:58;100981.91;;;-0.15;84.61
55759;BME280;41678;52.126;20.664;2023-04-03T02:50:20;100992.09;;;-0.18;84.68
55759;BME280;41678;52.126;20.664;2023-04-03T02:55:39;100992.69;;;-0.23;84.73
55759;BME280;41678;52.126;20.664;2023-04-03T03:00:59;100997.97;;;-0.22;84.43
55759;BME280;41678;52.126;20.664;2023-04-03T03:06:19;100989.13;;;-0.27;84.14
55759;BME280;41678;52.126;20.664;2023-04-03T03:11:39;101001.13;;;-0.29;83.11
55759;BME280;41678;52.126;20.664;2023-04-03T03:16:59;101002.53;;;-0.36;83.48
55759;BME280;41678;52.126;20.664;2023-04-03T03:22:19;101000.56;;;-0.41;83.69
55759;BME280;41678;52.126;20.664;2023-04-03T03:27:39;101007.09;;;-0.50;84.20
55759;BME280;41678;52.126;20.664;2023-04-03T03:33:00;101012.25;;;-0.50;83.91
55759;BME280;41678;52.126;20.664;2023-04-03T03:38:20;101009.53;;;-0.53;84.51
55759;BME280;41678;52.126;20.664;2023-04-03T03:43:40;101009.53;;;-0.53;84.16
55759;BME280;41678;52.126;20.664;2023-04-03T03:49:01;101006.69;;;-0.59;84.09
55759;BME280;41678;52.126;20.664;2023-04-03T03:54:21;101015.03;;;-0.65;83.81
55759;BME280;41678;52.126;20.664;2023-04-03T03:59:40;101020.88;;;-0.69;83.67
55759;BME280;41678;52.126;20.664;2023-04-03T04:05:01;101029.38;;;-0.72;83.66
55759;BME280;41678;52.126;20.664;2023-04-03T04:10:21;101025.69;;;-0.77;83.66
55759;BME280;41678;52.126;20.664;2023-04-03T04:15:42;101040.56;;;-0.73;83.61
55759;BME280;41678;52.126;20.664;2023-04-03T04:21:02;101036.72;;;-0.81;84.32
55759;BME280;41678;52.126;20.664;2023-04-03T04:26:23;101041.00;;;-0.81;84.14
55759;BME280;41678;52.126;20.664;2023-04-03T04:31:43;101037.97;;;-0.91;83.68
55759;BME280;41678;52.126;20.664;2023-04-03T04:37:03;101050.81;;;-0.92;83.78
55759;BME280;41678;52.126;20.664;2023-04-03T04:42:24;101051.63;;;-0.93;83.81
55759;BME280;41678;52.126;20.664;2023-04-03T04:47:44;101056.81;;;-0.93;83.74
55759;BME280;41678;52.126;20.664;2023-04-03T04:53:05;101068.06;;;-0.93;83.30
55759;BME280;41678;52.126;20.664;2023-04-03T04:58:25;101071.38;;;-0.95;83.74
55759;BME280;41678;52.126;20.664;2023-04-03T05:03:45;101079.13;;;-0.95;83.83
55759;BME280;41678;52.126;20.664;2023-04-03T05:09:06;101081.03;;;-0.91;83.58
55759;BME280;41678;52.126;20.664;2023-04-03T05:14:26;101079.13;;;-0.95;83.18
55759;BME280;41678;52.126;20.664;2023-04-03T05:19:48;101081.84;;;-0.92;83.10
55759;BME280;41678;52.126;20.664;2023-04-03T05:25:09;101094.13;;;-0.88;82.54
55759;BME280;41678;52.126;20.664;2023-04-03T05:30:29;101095.59;;;-0.93;83.01
55759;BME280;41678;52.126;20.664;2023-04-03T05:35:49;101101.22;;;-0.84;82.83
55759;BME280;41678;52.126;20.664;2023-04-03T05:41:14;101105.28;;;-0.89;83.12
55759;BME280;41678;52.126;20.664;2023-04-03T05:46:37;101114.44;;;-0.78;82.73
55759;BME280;41678;52.126;20.664;2023-04-03T05:52:00;101117.09;;;-0.76;82.50
55759;BME280;41678;52.126;20.664;2023-04-03T05:57:25;101120.41;;;-0.79;82.53
55759;BME280;41678;52.126;20.664;2023-04-03T06:02:44;101119.91;;;-0.72;82.15
55759;BME280;41678;52.126;20.664;2023-04-03T06:08:10;101120.13;;;-0.67;82.19
55759;BME280;41678;52.126;20.664;2023-04-03T06:13:30;101121.16;;;-0.63;80.86
55759;BME280;41678;52.126;20.664;2023-04-03T06:18:50;101134.06;;;-0.63;82.08
55759;BME280;41678;52.126;20.664;2023-04-03T06:24:14;101135.22;;;-0.58;82.40
55759;BME280;41678;52.126;20.664;2023-04-03T06:29:34;101142.28;;;-0.54;81.92
55759;BME280;41678;52.126;20.664;2023-04-03T06:34:54;101141.75;;;-0.47;81.61
55759;BME280;41678;52.126;20.664;2023-04-03T06:40:19;101134.28;;;-0.40;80.99
55759;BME280;41678;52.126;20.664;2023-04-03T06:45:40;101151.50;;;-0.41;81.60
55759;BME280;41678;52.126;20.664;2023-04-03T06:51:00;101149.28;;;-0.33;81.42
55759;BME280;41678;52.126;20.664;2023-04-03T06:56:21;101163.47;;;-0.25;81.44
55759;BME280;41678;52.126;20.664;2023-04-03T07:01:41;101166.47;;;-0.16;81.47
55759;BME280;41678;52.126;20.664;2023-04-03T07:07:01;101178.09;;;-0.07;81.28
55759;BME280;41678;52.126;20.664;2023-04-03T07:12:20;101166.09;;;-0.05;82.06
55759;BME280;41678;52.126;20.664;2023-04-03T07:17:40;101180.56;;;0.09;81.73
55759;BME280;41678;52.126;20.664;2023-04-03T07:23:00;101182.34;;;0.10;81.33
55759;BME280;41678;52.126;20.664;2023-04-03T07:28:22;101183.03;;;0.26;80.79
55759;BME280;41678;52.126;20.664;2023-04-03T07:33:43;101197.22;;;0.34;81.22
55759;BME280;41678;52.126;20.664;2023-04-03T07:39:03;101197.47;;;0.40;81.11
55759;BME280;41678;52.126;20.664;2023-04-03T07:44:23;101197.22;;;0.54;80.73
55759;BME280;41678;52.126;20.664;2023-04-03T07:49:43;101201.31;;;0.68;79.21
55759;BME280;41678;52.126;20.664;2023-04-03T07:55:03;101190.53;;;0.79;80.51
55759;BME280;41678;52.126;20.664;2023-04-03T08:00:23;101193.69;;;0.93;80.20
55759;BME280;41678;52.126;20.664;2023-04-03T08:05:45;101196.88;;;1.07;80.19
55759;BME280;41678;52.126;20.664;2023-04-03T08:11:05;101195.56;;;1.17;79.14
55759;BME280;41678;52.126;20.664;2023-04-03T08:16:25;101196.06;;;1.29;79.49
55759;BME280;41678;52.126;20.664;2023-04-03T08:21:46;101201.88;;;1.45;78.77
55759;BME280;41678;52.126;20.664;2023-04-03T08:27:06;101207.31;;;1.51;78.22
55759;BME280;41678;52.126;20.664;2023-04-03T08:32:26;101203.28;;;1.59;78.14
55759;BME280;41678;52.126;20.664;2023-04-03T08:37:45;101213.53;;;1.77;77.47
55759;BME280;41678;52.126;20.664;2023-04-03T08:48:47;101215.50;;;2.06;76.67
55759;BME280;41678;52.126;20.664;2023-04-03T08:54:13;101217.72;;;2.19;77.63
55759;BME280;41678;52.126;20.664;2023-04-03T08:59:39;101211.88;;;2.25;78.01
55759;BME280;41678;52.126;20.664;2023-04-03T09:05:02;101214.66;;;2.30;77.85
55759;BME280;41678;52.126;20.664;2023-04-03T09:10:29;101212.31;;;2.37;75.99
55759;BME280;41678;52.126;20.664;2023-04-03T09:15:53;101221.16;;;2.43;75.62
55759;BME280;41678;52.126;20.664;2023-04-03T09:21:17;101214.34;;;2.45;75.05
55759;BME280;41678;52.126;20.664;2023-04-03T09:26:59;101212.88;;;2.53;74.98
55759;BME280;41678;52.126;20.664;2023-04-03T09:32:32;101216.88;;;2.67;73.46
55759;BME280;41678;52.126;20.664;2023-04-03T09:38:00;101218.59;;;2.67;74.36
55759;BME280;41678;52.126;20.664;2023-04-03T09:43:38;101217.25;;;2.78;74.32
55759;BME280;41678;52.126;20.664;2023-04-03T09:49:00;101220.91;;;2.83;75.49
55759;BME280;41678;52.126;20.664;2023-04-03T09:54:38;101216.09;;;2.94;75.13
55759;BME280;41678;52.126;20.664;2023-04-03T10:00:01;101219.16;;;3.08;74.60
55759;BME280;41678;52.126;20.664;2023-04-03T10:05:39;101226.91;;;3.07;73.44
55759;BME280;41678;52.126;20.664;2023-04-03T10:11:08;101228.00;;;3.14;73.75
55759;BME280;41678;52.126;20.664;2023-04-03T10:16:36;101221.31;;;3.20;73.29
55759;BME280;41678;52.126;20.664;2023-04-03T10:22:10;101222.44;;;3.29;73.33
55759;BME280;41678;52.126;20.664;2023-04-03T10:27:57;101216.72;;;3.40;72.37
55759;BME280;41678;52.126;20.664;2023-04-03T10:50:23;101199.81;;;3.53;70.49
55759;BME280;41678;52.126;20.664;2023-04-03T10:55:50;101213.00;;;3.60;70.75
55759;BME280;41678;52.126;20.664;2023-04-03T11:01:16;101207.91;;;3.63;69.27
55759;BME280;41678;52.126;20.664;2023-04-03T11:06:45;101198.53;;;3.68;70.40
55759;BME280;41678;52.126;20.664;2023-04-03T11:12:15;101203.97;;;3.76;69.36
55759;BME280;41678;52.126;20.664;2023-04-03T11:17:41;101204.66;;;3.70;67.92
55759;BME280;41678;52.126;20.664;2023-04-03T11:23:16;101188.25;;;3.73;69.10
55759;BME280;41678;52.126;20.664;2023-04-03T11:28:40;101194.25;;;3.70;68.97
55759;BME280;41678;52.126;20.664;2023-04-03T11:34:21;101195.34;;;3.78;68.59
55759;BME280;41678;52.126;20.664;2023-04-03T11:39:52;101179.00;;;3.82;67.81
55759;BME280;41678;52.126;20.664;2023-04-03T11:45:17;101181.84;;;3.90;65.63
55759;BME280;41678;52.126;20.664;2023-04-03T11:50:52;101186.53;;;4.02;67.42
55759;BME280;41678;52.126;20.664;2023-04-03T11:56:32;101177.69;;;3.97;65.73
55759;BME280;41678;52.126;20.664;2023-04-03T12:01:56;101172.88;;;4.11;66.12
55759;BME280;41678;52.126;20.664;2023-04-03T12:07:18;101176.47;;;4.15;67.90
55759;BME280;41678;52.126;20.664;2023-04-03T12:12:40;101180.09;;;4.20;67.26
55759;BME280;41678;52.126;20.664;2023-04-03T12:29:37;101169.94;;;4.29;67.40
55759;BME280;41678;52.126;20.664;2023-04-03T12:51:37;101176.81;;;4.27;66.66
55759;BME280;41678;52.126;20.664;2023-04-03T12:57:20;101173.63;;;4.37;66.44
55759;BME280;41678;52.126;20.664;2023-04-03T13:02:44;101173.63;;;4.37;66.57
55759;BME280;41678;52.126;20.664;2023-04-03T13:08:08;101173.72;;;4.41;65.74
55759;BME280;41678;52.126;20.664;2023-04-03T13:13:29;101180.72;;;4.42;65.61
55759;BME280;41678;52.126;20.664;2023-04-03T13:18:54;101159.09;;;4.47;66.07
55759;BME280;41678;52.126;20.664;2023-04-03T13:24:14;101170.53;;;4.51;66.26
55759;BME280;41678;52.126;20.664;2023-04-03T13:29:38;101170.59;;;4.54;66.62
55759;BME280;41678;52.126;20.664;2023-04-03T13:34:59;101157.66;;;4.57;66.50
55759;BME280;41678;52.126;20.664;2023-04-03T13:40:19;101165.38;;;4.54;63.60
55759;BME280;41678;52.126;20.664;2023-04-03T13:45:39;101169.88;;;4.58;65.37
55759;BME280;41678;52.126;20.664;2023-04-03T13:51:01;101165.56;;;4.60;64.28
55759;BME280;41678;52.126;20.664;2023-04-03T13:56:27;101166.41;;;4.59;65.27
55759;BME280;41678;52.126;20.664;2023-04-03T14:02:12;101167.19;;;4.57;64.42
55759;BME280;41678;52.126;20.664;2023-04-03T14:07:32;101169.66;;;4.50;63.69
55759;BME280;41678;52.126;20.664;2023-04-03T14:12:52;101160.84;;;4.47;64.46
55759;BME280;41678;52.126;20.664;2023-04-03T14:18:13;101173.06;;;4.48;64.39
55759;BME280;41678;52.126;20.664;2023-04-03T14:23:33;101162.56;;;4.46;64.66
55759;BME280;41678;52.126;20.664;2023-04-03T14:28:54;101159.09;;;4.46;64.44
55759;BME280;41678;52.126;20.664;2023-04-03T14:34:15;101146.53;;;4.32;64.67
55759;BME280;41678;52.126;20.664;2023-04-03T14:39:35;101153.69;;;4.39;64.27
55759;BME280;41678;52.126;20.664;2023-04-03T14:44:54;101159.66;;;4.35;63.50
55759;BME280;41678;52.126;20.664;2023-04-03T14:50:19;101153.47;;;4.32;64.07
55759;BME280;41678;52.126;20.664;2023-04-03T14:55:43;101161.25;;;4.30;63.02
55759;BME280;41678;52.126;20.664;2023-04-03T15:01:04;101163.03;;;4.31;63.39
55759;BME280;41678;52.126;20.664;2023-04-03T15:06:24;101167.03;;;4.18;61.54
55759;BME280;41678;52.126;20.664;2023-04-03T15:11:44;101166.22;;;4.21;62.65
55759;BME280;41678;52.126;20.664;2023-04-03T15:17:05;101169.56;;;4.17;62.37
55759;BME280;41678;52.126;20.664;2023-04-03T15:22:25;101159.84;;;4.11;63.11
55759;BME280;41678;52.126;20.664;2023-04-03T15:27:45;101170.34;;;4.14;63.01
55759;BME280;41678;52.126;20.664;2023-04-03T15:33:04;101165.91;;;4.10;62.34
55759;BME280;41678;52.126;20.664;2023-04-03T15:38:23;101168.44;;;4.08;62.67
55759;BME280;41678;52.126;20.664;2023-04-03T15:43:43;101170.00;;;4.02;62.71
55759;BME280;41678;52.126;20.664;2023-04-03T15:49:04;101173.41;;;3.99;63.90
55759;BME280;41678;52.126;20.664;2023-04-03T15:54:24;101168.13;;;3.96;64.01
55759;BME280;41678;52.126;20.664;2023-04-03T15:59:44;101171.56;;;3.95;63.31
55759;BME280;41678;52.126;20.664;2023-04-03T16:05:04;101171.34;;;3.89;62.61
55759;BME280;41678;52.126;20.664;2023-04-03T16:10:24;101163.38;;;3.82;62.91
55759;BME280;41678;52.126;20.664;2023-04-03T16:15:44;101177.19;;;3.80;64.56
55759;BME280;41678;52.126;20.664;2023-04-03T16:21:06;101168.72;;;3.87;63.38
55759;BME280;41678;52.126;20.664;2023-04-03T16:26:26;101166.91;;;3.85;63.78
55759;BME280;41678;52.126;20.664;2023-04-03T16:31:45;101175.47;;;3.80;64.50
55759;BME280;41678;52.126;20.664;2023-04-03T16:37:06;101173.50;;;3.73;63.57
55759;BME280;41678;52.126;20.664;2023-04-03T16:42:27;101175.88;;;3.65;64.67
55759;BME280;41678;52.126;20.664;2023-04-03T16:47:47;101175.81;;;3.64;63.17
55759;BME280;41678;52.126;20.664;2023-04-03T16:53:06;101175.69;;;3.59;64.27
55759;BME280;41678;52.126;20.664;2023-04-03T16:58:28;101180.91;;;3.59;64.63
55759;BME280;41678;52.126;20.664;2023-04-03T17:03:48;101180.69;;;3.53;64.62
55759;BME280;41678;52.126;20.664;2023-04-03T17:09:08;101184.13;;;3.52;65.24
55759;BME280;41678;52.126;20.664;2023-04-03T17:14:29;101188.31;;;3.47;65.40
55759;BME280;41678;52.126;20.664;2023-04-03T17:19:49;101190.00;;;3.46;64.72
55759;BME280;41678;52.126;20.664;2023-04-03T17:25:08;101196.81;;;3.41;66.14
55759;BME280;41678;52.126;20.664;2023-04-03T17:30:29;101193.28;;;3.39;65.62
55759;BME280;41678;52.126;20.664;2023-04-03T17:35:48;101207.03;;;3.35;65.70
55759;BME280;41678;52.126;20.664;2023-04-03T17:41:08;101203.38;;;3.30;66.22
55759;BME280;41678;52.126;20.664;2023-04-03T17:46:27;101213.78;;;3.30;65.64
55759;BME280;41678;52.126;20.664;2023-04-03T17:51:48;101212.66;;;3.21;66.14
55759;BME280;41678;52.126;20.664;2023-04-03T17:57:07;101214.34;;;3.19;66.22
55759;BME280;41678;52.126;20.664;2023-04-03T18:02:27;101214.16;;;3.15;66.07
55759;BME280;41678;52.126;20.664;2023-04-03T18:07:48;101215.84;;;3.13;66.92
55759;BME280;41678;52.126;20.664;2023-04-03T18:13:10;101222.66;;;3.09;66.37
55759;BME280;41678;52.126;20.664;2023-04-03T18:18:33;101224.34;;;3.08;66.35
55759;BME280;41678;52.126;20.664;2023-04-03T18:23:54;101220.72;;;3.03;66.43
55759;BME280;41678;52.126;20.664;2023-04-03T18:29:14;101222.94;;;2.92;67.17
55759;BME280;41678;52.126;20.664;2023-04-03T18:34:34;101224.63;;;2.90;67.25
55759;BME280;41678;52.126;20.664;2023-04-03T18:39:54;101230.69;;;2.91;67.38
55759;BME280;41678;52.126;20.664;2023-04-03T18:45:15;101227.81;;;2.83;67.96
55759;BME280;41678;52.126;20.664;2023-04-03T18:50:38;101231.59;;;2.91;66.73
55759;BME280;41678;52.126;20.664;2023-04-03T18:55:57;101235.03;;;2.90;67.42
55759;BME280;41678;52.126;20.664;2023-04-03T19:01:17;101229.66;;;2.86;66.51
55759;BME280;41678;52.126;20.664;2023-04-03T19:06:37;101229.38;;;2.78;66.69
55759;BME280;41678;52.126;20.664;2023-04-03T19:11:57;101226.78;;;2.78;67.01
55759;BME280;41678;52.126;20.664;2023-04-03T19:17:17;101230.91;;;2.73;67.20
55759;BME280;41678;52.126;20.664;2023-04-03T19:22:36;101235.91;;;2.66;67.51
55759;BME280;41678;52.126;20.664;2023-04-03T19:27:56;101234.31;;;2.70;67.22
55759;BME280;41678;52.126;20.664;2023-04-03T19:33:15;101240.91;;;2.60;67.75
55759;BME280;41678;52.126;20.664;2023-04-03T19:38:36;101241.84;;;2.62;67.78
55759;BME280;41678;52.126;20.664;2023-04-03T19:43:55;101250.28;;;2.57;67.54
55759;BME280;41678;52.126;20.664;2023-04-03T19:49:15;101247.75;;;2.58;67.38
55759;BME280;41678;52.126;20.664;2023-04-03T19:54:35;101250.19;;;2.53;67.33
55759;BME280;41678;52.126;20.664;2023-04-03T19:59:55;101248.41;;;2.52;67.09
55759;BME280;41678;52.126;20.664;2023-04-03T20:05:14;101244.53;;;2.41;67.84
55759;BME280;41678;52.126;20.664;2023-04-03T20:10:34;101261.13;;;2.45;67.37
55759;BME280;41678;52.126;20.664;2023-04-03T20:16:03;101247.16;;;2.43;67.77
55759;BME280;41678;52.126;20.664;2023-04-03T20:21:28;101251.31;;;2.37;67.68
55759;BME280;41678;52.126;20.664;2023-04-03T20:26:48;101248.50;;;2.31;67.77
55759;BME280;41678;52.126;20.664;2023-04-03T20:32:08;101249.06;;;2.24;67.33
55759;BME280;41678;52.126;20.664;2023-04-03T20:37:30;101251.69;;;2.24;67.89
55759;BME280;41678;52.126;20.664;2023-04-03T20:42:49;101258.94;;;2.10;67.62
55759;BME280;41678;52.126;20.664;2023-04-03T20:48:10;101254.63;;;2.10;67.50
55759;BME280;41678;52.126;20.664;2023-04-03T20:53:31;101251.88;;;2.06;67.76
55759;BME280;41678;52.126;20.664;2023-04-03T20:58:53;101253.34;;;1.99;67.65
55759;BME280;41678;52.126;20.664;2023-04-03T21:04:24;101257.44;;;1.94;67.37
55759;BME280;41678;52.126;20.664;2023-04-03T21:21:16;101256.84;;;1.78;67.52
55759;BME280;41678;52.126;20.664;2023-04-03T21:26:36;101253.19;;;1.73;67.99
55759;BME280;41678;52.126;20.664;2023-04-03T21:31:58;101255.72;;;1.72;67.71
55759;BME280;41678;52.126;20.664;2023-04-03T21:37:17;101251.97;;;1.65;67.86
55759;BME280;41678;52.126;20.664;2023-04-03T21:42:37;101252.63;;;1.59;68.13
55759;BME280;41678;52.126;20.664;2023-04-03T21:47:57;101242.94;;;1.55;68.12
55759;BME280;41678;52.126;20.664;2023-04-03T21:53:20;101258.41;;;1.52;68.08
55759;BME280;41678;52.126;20.664;2023-04-03T21:58:40;101251.19;;;1.45;68.35
55759;BME280;41678;52.126;20.664;2023-04-03T22:04:00;101257.00;;;1.39;68.32
55759;BME280;41678;52.126;20.664;2023-04-03T22:09:21;101239.34;;;1.30;68.79
55759;BME280;41678;52.126;20.664;2023-04-03T22:14:40;101247.19;;;1.32;68.65
55759;BME280;41678;52.126;20.664;2023-04-03T22:20:00;101253.00;;;1.26;68.88
55759;BME280;41678;52.126;20.664;2023-04-03T22:25:20;101260.72;;;1.24;68.73
55759;BME280;41678;52.126;20.664;2023-04-03T22:30:39;101254.44;;;1.19;68.91
55759;BME280;41678;52.126;20.664;2023-04-03T22:36:00;101253.25;;;1.11;69.26
55759;BME280;41678;52.126;20.664;2023-04-03T22:41:19;101254.91;;;1.09;69.17
55759;BME280;41678;52.126;20.664;2023-04-03T22:46:39;101252.31;;;1.09;69.63
55759;BME280;41678;52.126;20.664;2023-04-03T22:51:58;101248.88;;;1.10;69.31
55759;BME280;41678;52.126;20.664;2023-04-03T22:57:18;101244.19;;;1.01;69.80
55759;BME280;41678;52.126;20.664;2023-04-03T23:02:38;101239.75;;;0.98;69.97
55759;BME280;41678;52.126;20.664;2023-04-03T23:07:57;101242.84;;;0.90;70.00
55759;BME280;41678;52.126;20.664;2023-04-03T23:13:16;101237.56;;;0.88;70.08
55759;BME280;41678;52.126;20.664;2023-04-03T23:18:36;101244.41;;;0.86;69.97
55759;BME280;41678;52.126;20.664;2023-04-03T23:23:58;101240.72;;;0.81;70.38
55759;BME280;41678;52.126;20.664;2023-04-03T23:29:17;101239.44;;;0.71;70.62
55759;BME280;41678;52.126;20.664;2023-04-03T23:34:37;101240.44;;;0.75;70.44
55759;BME280;41678;52.126;20.664;2023-04-03T23:39:56;101236.50;;;0.63;70.50
55759;BME280;41678;52.126;20.664;2023-04-03T23:45:15;101233.22;;;0.67;70.86
55759;BME280;41678;52.126;20.664;2023-04-03T23:50:35;101231.16;;;0.60;70.66
55759;BME280;41678;52.126;20.664;2023-04-03T23:55:55;101219.72;;;0.55;70.32
